University of Texas, Texas
Current Conditions -  °F | °C
As of 3:51 PM on Sunday 23 Nov 2014 (Local Time) from KATT Reporting Station
Clear Clear  
Wind Chill: 80°   Ceiling: Unl
Heat Index: 80°   Visibility: 10mi
Dew Point: 39°   Wind: 12mph
Humidity: 23%   Direction: 260°W
Pressure: 29.54"   Gusts: 22mph
Location:  30.2843°N, 97.7442°W
Report Text: KATT 232151Z AUTO 26010G19KT 10SM CLR 27/04 A2954 RMK AO2 SLP994 T02670039
Loading
Personal Weather Stations






























Interactive Weather Map New forecast layout! Learn more

10-Day Weather Forecast

Advertisements
Track Severe Weather on mobile